LUKK/KIV METAR and TAF weather

Enter ICAO airport designator
Station Type Date Time Source
LUKK METAR 2021/09/16 22:00 UTC NOAA

LUKK 162200Z 18005KT CAVOK 16/12 Q1017 R08/CLRD// NOSIG


Station Type Date Time Source
LUKK Decoded METAR 2021/09/16 22:00 UTC NOAA

Chisinau International Airport, Moldova (LUKK) 46-55-40N 028-55-51E
Sep 16, 2021 - 06:00 PM EDT / 2021.09.16 2200 UTC
Wind: from the S (180 degrees) at 6 MPH (5 KT):0
Visibility: greater than 7 mile(s):0
Temperature: 60 F (16 C)
Dew Point: 53 F (12 C)
Relative Humidity: 77%
Pressure (altimeter): 30.03 in. Hg (1017 hPa)
ob: LUKK 162200Z 18005KT CAVOK 16/12 Q1017 R08/CLRD// NOSIG
cycle: 22

Station Type Date Time Source
LUKK TAF 2021/09/16 18:21 UTC NOAA

TAF TAF LUKK 161720Z 1618/1718 14006KT CAVOK
BECMG 1705/1707 18012KT
TEMPO 1715/1718 SCT045CB

Example: see airport list